sensor_id;sensor_type;location;lat;lon;timestamp;P1;durP1;ratioP1;P2;durP2;ratioP2
29878;SDS011;16752;53.364;-1.488;2022-11-23T00:01:57;38.10;;;19.02;;
29878;SDS011;16752;53.364;-1.488;2022-11-23T00:04:25;28.17;;;16.38;;
29878;SDS011;16752;53.364;-1.488;2022-11-23T00:07:03;29.35;;;16.52;;
29878;SDS011;16752;53.364;-1.488;2022-11-23T00:09:37;31.48;;;17.02;;
29878;SDS011;16752;53.364;-1.488;2022-11-23T00:12:12;26.35;;;16.45;;
29878;SDS011;16752;53.364;-1.488;2022-11-23T00:14:46;29.88;;;16.25;;
29878;SDS011;16752;53.364;-1.488;2022-11-23T00:17:27;30.20;;;16.02;;
29878;SDS011;16752;53.364;-1.488;2022-11-23T00:20:03;27.15;;;15.48;;
29878;SDS011;16752;53.364;-1.488;2022-11-23T00:22:39;25.98;;;15.75;;
29878;SDS011;16752;53.364;-1.488;2022-11-23T00:25:19;21.90;;;14.07;;
29878;SDS011;16752;53.364;-1.488;2022-11-23T00:27:53;26.75;;;15.30;;
29878;SDS011;16752;53.364;-1.488;2022-11-23T00:30:28;27.08;;;14.95;;
29878;SDS011;16752;53.364;-1.488;2022-11-23T00:33:02;20.23;;;13.88;;
29878;SDS011;16752;53.364;-1.488;2022-11-23T00:35:37;24.45;;;14.40;;
29878;SDS011;16752;53.364;-1.488;2022-11-23T00:38:11;28.15;;;14.85;;
29878;SDS011;16752;53.364;-1.488;2022-11-23T00:40:46;27.33;;;14.85;;
29878;SDS011;16752;53.364;-1.488;2022-11-23T00:43:18;25.80;;;14.88;;
29878;SDS011;16752;53.364;-1.488;2022-11-23T00:46:02;25.00;;;15.98;;
29878;SDS011;16752;53.364;-1.488;2022-11-23T00:48:37;30.83;;;14.98;;
29878;SDS011;16752;53.364;-1.488;2022-11-23T00:51:13;31.67;;;14.68;;
29878;SDS011;16752;53.364;-1.488;2022-11-23T00:53:50;29.13;;;15.82;;
29878;SDS011;16752;53.364;-1.488;2022-11-23T00:56:25;23.67;;;14.18;;
29878;SDS011;16752;53.364;-1.488;2022-11-23T00:59:01;25.40;;;14.85;;
29878;SDS011;16752;53.364;-1.488;2022-11-23T01:01:37;24.52;;;14.43;;
29878;SDS011;16752;53.364;-1.488;2022-11-23T01:04:12;24.27;;;13.88;;
29878;SDS011;16752;53.364;-1.488;2022-11-23T01:06:46;25.63;;;13.35;;
29878;SDS011;16752;53.364;-1.488;2022-11-23T01:09:21;27.45;;;14.32;;
29878;SDS011;16752;53.364;-1.488;2022-11-23T01:11:55;23.48;;;12.90;;
29878;SDS011;16752;53.364;-1.488;2022-11-23T01:14:29;23.75;;;12.93;;
29878;SDS011;16752;53.364;-1.488;2022-11-23T01:17:03;23.85;;;13.40;;
29878;SDS011;16752;53.364;-1.488;2022-11-23T01:19:37;22.60;;;13.13;;
29878;SDS011;16752;53.364;-1.488;2022-11-23T01:22:11;27.15;;;14.82;;
29878;SDS011;16752;53.364;-1.488;2022-11-23T01:24:46;21.98;;;12.80;;
29878;SDS011;16752;53.364;-1.488;2022-11-23T01:27:20;24.77;;;13.93;;
29878;SDS011;16752;53.364;-1.488;2022-11-23T01:29:55;24.85;;;13.25;;
29878;SDS011;16752;53.364;-1.488;2022-11-23T01:32:29;20.48;;;12.48;;
29878;SDS011;16752;53.364;-1.488;2022-11-23T01:35:03;23.60;;;12.82;;
29878;SDS011;16752;53.364;-1.488;2022-11-23T01:37:39;22.48;;;13.13;;
29878;SDS011;16752;53.364;-1.488;2022-11-23T01:40:14;20.23;;;12.63;;
29878;SDS011;16752;53.364;-1.488;2022-11-23T01:42:55;22.30;;;12.32;;
29878;SDS011;16752;53.364;-1.488;2022-11-23T01:45:39;23.27;;;11.30;;
29878;SDS011;16752;53.364;-1.488;2022-11-23T01:48:17;21.25;;;11.30;;
29878;SDS011;16752;53.364;-1.488;2022-11-23T01:50:56;20.33;;;11.02;;
29878;SDS011;16752;53.364;-1.488;2022-11-23T01:53:37;27.05;;;11.93;;
29878;SDS011;16752;53.364;-1.488;2022-11-23T01:56:14;21.65;;;12.23;;
29878;SDS011;16752;53.364;-1.488;2022-11-23T01:58:52;22.00;;;12.00;;
29878;SDS011;16752;53.364;-1.488;2022-11-23T02:01:29;27.98;;;12.27;;
29878;SDS011;16752;53.364;-1.488;2022-11-23T02:04:05;23.95;;;13.05;;
29878;SDS011;16752;53.364;-1.488;2022-11-23T02:06:42;26.48;;;13.55;;
29878;SDS011;16752;53.364;-1.488;2022-11-23T02:09:18;33.28;;;16.17;;
29878;SDS011;16752;53.364;-1.488;2022-11-23T02:11:55;30.58;;;16.58;;
29878;SDS011;16752;53.364;-1.488;2022-11-23T02:14:30;32.25;;;17.95;;
29878;SDS011;16752;53.364;-1.488;2022-11-23T02:17:05;28.55;;;17.90;;
29878;SDS011;16752;53.364;-1.488;2022-11-23T02:28:25;28.00;;;17.88;;
29878;SDS011;16752;53.364;-1.488;2022-11-23T02:31:07;38.00;;;19.23;;
29878;SDS011;16752;53.364;-1.488;2022-11-23T02:33:42;38.53;;;21.52;;
29878;SDS011;16752;53.364;-1.488;2022-11-23T02:42:04;28.80;;;17.08;;
29878;SDS011;16752;53.364;-1.488;2022-11-23T02:44:52;28.33;;;18.52;;
29878;SDS011;16752;53.364;-1.488;2022-11-23T02:47:39;28.73;;;18.48;;
29878;SDS011;16752;53.364;-1.488;2022-11-23T02:50:13;34.00;;;18.70;;
29878;SDS011;16752;53.364;-1.488;2022-11-23T02:52:47;31.83;;;17.92;;
29878;SDS011;16752;53.364;-1.488;2022-11-23T02:55:22;28.13;;;17.30;;
29878;SDS011;16752;53.364;-1.488;2022-11-23T02:57:53;29.73;;;17.80;;
29878;SDS011;16752;53.364;-1.488;2022-11-23T03:00:28;29.23;;;18.17;;
29878;SDS011;16752;53.364;-1.488;2022-11-23T03:03:03;29.08;;;18.50;;
29878;SDS011;16752;53.364;-1.488;2022-11-23T03:05:38;33.53;;;20.15;;
29878;SDS011;16752;53.364;-1.488;2022-11-23T03:08:13;27.80;;;18.60;;
29878;SDS011;16752;53.364;-1.488;2022-11-23T03:10:47;32.05;;;19.30;;
29878;SDS011;16752;53.364;-1.488;2022-11-23T03:13:21;32.92;;;19.05;;
29878;SDS011;16752;53.364;-1.488;2022-11-23T03:16:05;33.38;;;18.20;;
29878;SDS011;16752;53.364;-1.488;2022-11-23T03:18:39;29.38;;;19.25;;
29878;SDS011;16752;53.364;-1.488;2022-11-23T03:21:13;33.78;;;20.23;;
29878;SDS011;16752;53.364;-1.488;2022-11-23T03:23:48;31.58;;;19.23;;
29878;SDS011;16752;53.364;-1.488;2022-11-23T03:26:23;35.28;;;19.58;;
29878;SDS011;16752;53.364;-1.488;2022-11-23T03:28:57;33.35;;;20.13;;
29878;SDS011;16752;53.364;-1.488;2022-11-23T03:31:30;39.13;;;21.80;;
29878;SDS011;16752;53.364;-1.488;2022-11-23T03:34:05;41.10;;;23.58;;
29878;SDS011;16752;53.364;-1.488;2022-11-23T03:36:40;41.78;;;24.52;;
29878;SDS011;16752;53.364;-1.488;2022-11-23T03:39:15;45.20;;;25.33;;
29878;SDS011;16752;53.364;-1.488;2022-11-23T03:41:58;40.33;;;23.85;;
29878;SDS011;16752;53.364;-1.488;2022-11-23T03:44:33;46.17;;;25.58;;
29878;SDS011;16752;53.364;-1.488;2022-11-23T03:47:08;44.78;;;27.20;;
29878;SDS011;16752;53.364;-1.488;2022-11-23T03:49:45;47.05;;;26.80;;
29878;SDS011;16752;53.364;-1.488;2022-11-23T03:52:19;51.75;;;25.98;;
29878;SDS011;16752;53.364;-1.488;2022-11-23T03:54:53;44.70;;;27.05;;
29878;SDS011;16752;53.364;-1.488;2022-11-23T03:57:26;44.92;;;26.83;;
29878;SDS011;16752;53.364;-1.488;2022-11-23T04:00:01;44.00;;;25.90;;
29878;SDS011;16752;53.364;-1.488;2022-11-23T04:02:36;46.83;;;25.13;;
29878;SDS011;16752;53.364;-1.488;2022-11-23T04:05:12;39.85;;;24.63;;
29878;SDS011;16752;53.364;-1.488;2022-11-23T04:07:52;43.40;;;24.50;;
29878;SDS011;16752;53.364;-1.488;2022-11-23T04:10:26;37.30;;;24.30;;
29878;SDS011;16752;53.364;-1.488;2022-11-23T04:13:05;40.30;;;23.23;;
29878;SDS011;16752;53.364;-1.488;2022-11-23T04:15:39;38.22;;;23.67;;
29878;SDS011;16752;53.364;-1.488;2022-11-23T04:18:14;44.33;;;24.13;;
29878;SDS011;16752;53.364;-1.488;2022-11-23T04:20:47;45.60;;;26.50;;
29878;SDS011;16752;53.364;-1.488;2022-11-23T04:23:22;46.80;;;25.63;;
29878;SDS011;16752;53.364;-1.488;2022-11-23T04:25:56;43.15;;;25.52;;
29878;SDS011;16752;53.364;-1.488;2022-11-23T04:28:30;46.55;;;26.65;;
29878;SDS011;16752;53.364;-1.488;2022-11-23T04:31:05;48.58;;;26.63;;
29878;SDS011;16752;53.364;-1.488;2022-11-23T04:33:39;49.17;;;27.67;;
29878;SDS011;16752;53.364;-1.488;2022-11-23T04:36:14;48.05;;;27.63;;
29878;SDS011;16752;53.364;-1.488;2022-11-23T04:38:49;52.72;;;26.52;;
29878;SDS011;16752;53.364;-1.488;2022-11-23T04:41:23;50.22;;;25.63;;
29878;SDS011;16752;53.364;-1.488;2022-11-23T04:43:58;44.47;;;25.02;;
29878;SDS011;16752;53.364;-1.488;2022-11-23T04:46:40;49.83;;;26.63;;
29878;SDS011;16752;53.364;-1.488;2022-11-23T04:49:14;50.72;;;26.38;;
29878;SDS011;16752;53.364;-1.488;2022-11-23T04:51:50;48.65;;;24.88;;
29878;SDS011;16752;53.364;-1.488;2022-11-23T04:54:26;47.58;;;24.70;;
29878;SDS011;16752;53.364;-1.488;2022-11-23T04:57:01;43.10;;;23.73;;
29878;SDS011;16752;53.364;-1.488;2022-11-23T05:03:00;45.30;;;21.48;;
29878;SDS011;16752;53.364;-1.488;2022-11-23T05:06:34;43.33;;;21.80;;
29878;SDS011;16752;53.364;-1.488;2022-11-23T05:09:08;38.33;;;22.05;;
29878;SDS011;16752;53.364;-1.488;2022-11-23T05:11:42;38.95;;;20.63;;
29878;SDS011;16752;53.364;-1.488;2022-11-23T05:14:21;39.30;;;21.08;;
29878;SDS011;16752;53.364;-1.488;2022-11-23T05:17:02;41.78;;;22.10;;
29878;SDS011;16752;53.364;-1.488;2022-11-23T05:19:39;45.22;;;23.08;;
29878;SDS011;16752;53.364;-1.488;2022-11-23T05:22:18;32.23;;;19.80;;
29878;SDS011;16752;53.364;-1.488;2022-11-23T05:24:53;40.83;;;20.75;;
29878;SDS011;16752;53.364;-1.488;2022-11-23T05:27:37;33.92;;;19.55;;
29878;SDS011;16752;53.364;-1.488;2022-11-23T05:30:22;35.88;;;18.80;;
29878;SDS011;16752;53.364;-1.488;2022-11-23T05:33:04;37.42;;;18.95;;
29878;SDS011;16752;53.364;-1.488;2022-11-23T05:35:58;34.88;;;17.55;;
29878;SDS011;16752;53.364;-1.488;2022-11-23T05:38:38;35.80;;;19.52;;
29878;SDS011;16752;53.364;-1.488;2022-11-23T05:41:13;36.60;;;18.67;;
29878;SDS011;16752;53.364;-1.488;2022-11-23T05:43:57;33.78;;;18.85;;
29878;SDS011;16752;53.364;-1.488;2022-11-23T05:46:54;32.95;;;18.05;;
29878;SDS011;16752;53.364;-1.488;2022-11-23T05:50:15;39.03;;;18.92;;
29878;SDS011;16752;53.364;-1.488;2022-11-23T05:52:54;38.65;;;19.52;;
29878;SDS011;16752;53.364;-1.488;2022-11-23T05:55:37;44.25;;;20.17;;
29878;SDS011;16752;53.364;-1.488;2022-11-23T05:58:17;41.28;;;20.25;;
29878;SDS011;16752;53.364;-1.488;2022-11-23T06:04:47;41.13;;;17.85;;
29878;SDS011;16752;53.364;-1.488;2022-11-23T06:07:22;34.13;;;16.20;;
29878;SDS011;16752;53.364;-1.488;2022-11-23T06:10:36;29.05;;;15.95;;
29878;SDS011;16752;53.364;-1.488;2022-11-23T06:13:10;27.77;;;16.10;;
29878;SDS011;16752;53.364;-1.488;2022-11-23T06:16:02;28.30;;;15.48;;
29878;SDS011;16752;53.364;-1.488;2022-11-23T06:18:42;30.58;;;15.68;;
29878;SDS011;16752;53.364;-1.488;2022-11-23T06:21:22;24.27;;;14.05;;
29878;SDS011;16752;53.364;-1.488;2022-11-23T06:24:18;26.83;;;13.13;;
29878;SDS011;16752;53.364;-1.488;2022-11-23T06:27:15;35.50;;;14.82;;
29878;SDS011;16752;53.364;-1.488;2022-11-23T06:29:52;28.02;;;13.57;;
29878;SDS011;16752;53.364;-1.488;2022-11-23T06:32:44;22.27;;;12.77;;
29878;SDS011;16752;53.364;-1.488;2022-11-23T06:35:32;20.38;;;14.40;;
29878;SDS011;16752;53.364;-1.488;2022-11-23T06:38:25;24.08;;;13.05;;
29878;SDS011;16752;53.364;-1.488;2022-11-23T06:41:09;21.83;;;13.48;;
29878;SDS011;16752;53.364;-1.488;2022-11-23T06:44:27;25.45;;;14.65;;
29878;SDS011;16752;53.364;-1.488;2022-11-23T06:47:09;21.23;;;13.43;;
29878;SDS011;16752;53.364;-1.488;2022-11-23T06:50:13;21.73;;;13.88;;
29878;SDS011;16752;53.364;-1.488;2022-11-23T06:53:23;20.88;;;12.93;;
29878;SDS011;16752;53.364;-1.488;2022-11-23T06:59:10;21.85;;;12.13;;
29878;SDS011;16752;53.364;-1.488;2022-11-23T07:01:46;26.17;;;12.93;;
29878;SDS011;16752;53.364;-1.488;2022-11-23T07:08:04;25.08;;;11.50;;
29878;SDS011;16752;53.364;-1.488;2022-11-23T07:13:39;23.77;;;12.30;;
29878;SDS011;16752;53.364;-1.488;2022-11-23T07:27:25;21.83;;;11.73;;
29878;SDS011;16752;53.364;-1.488;2022-11-23T08:00:10;11.32;;;5.13;;
29878;SDS011;16752;53.364;-1.488;2022-11-23T08:03:11;13.13;;;6.50;;
29878;SDS011;16752;53.364;-1.488;2022-11-23T08:08:50;10.50;;;5.68;;
29878;SDS011;16752;53.364;-1.488;2022-11-23T08:11:15;17.52;;;6.30;;
29878;SDS011;16752;53.364;-1.488;2022-11-23T08:13:50;17.38;;;6.72;;
29878;SDS011;16752;53.364;-1.488;2022-11-23T08:16:27;14.68;;;6.20;;
29878;SDS011;16752;53.364;-1.488;2022-11-23T08:18:53;13.82;;;5.88;;
29878;SDS011;16752;53.364;-1.488;2022-11-23T08:21:21;11.77;;;5.90;;
29878;SDS011;16752;53.364;-1.488;2022-11-23T08:23:47;16.05;;;6.72;;
29878;SDS011;16752;53.364;-1.488;2022-11-23T08:26:13;14.25;;;6.90;;
29878;SDS011;16752;53.364;-1.488;2022-11-23T08:28:39;13.05;;;5.43;;
29878;SDS011;16752;53.364;-1.488;2022-11-23T08:31:06;8.95;;;5.10;;
29878;SDS011;16752;53.364;-1.488;2022-11-23T08:33:32;14.23;;;5.10;;
29878;SDS011;16752;53.364;-1.488;2022-11-23T08:36:02;13.93;;;5.05;;
29878;SDS011;16752;53.364;-1.488;2022-11-23T08:38:29;7.55;;;4.82;;
29878;SDS011;16752;53.364;-1.488;2022-11-23T08:41:02;11.57;;;5.20;;
29878;SDS011;16752;53.364;-1.488;2022-11-23T08:44:01;11.45;;;4.65;;
29878;SDS011;16752;53.364;-1.488;2022-11-23T08:46:26;12.60;;;4.95;;
29878;SDS011;16752;53.364;-1.488;2022-11-23T08:48:52;6.93;;;4.60;;
29878;SDS011;16752;53.364;-1.488;2022-11-23T08:51:20;5.35;;;4.00;;
29878;SDS011;16752;53.364;-1.488;2022-11-23T08:53:52;10.05;;;4.28;;
29878;SDS011;16752;53.364;-1.488;2022-11-23T08:56:17;9.88;;;4.22;;
29878;SDS011;16752;53.364;-1.488;2022-11-23T08:58:43;6.50;;;4.55;;
29878;SDS011;16752;53.364;-1.488;2022-11-23T09:01:10;5.80;;;4.00;;
29878;SDS011;16752;53.364;-1.488;2022-11-23T09:03:38;7.18;;;4.00;;
29878;SDS011;16752;53.364;-1.488;2022-11-23T09:06:03;8.20;;;4.25;;
29878;SDS011;16752;53.364;-1.488;2022-11-23T09:08:29;7.60;;;4.55;;
29878;SDS011;16752;53.364;-1.488;2022-11-23T09:10:59;4.18;;;3.55;;
29878;SDS011;16752;53.364;-1.488;2022-11-23T09:13:27;7.10;;;3.47;;
29878;SDS011;16752;53.364;-1.488;2022-11-23T09:15:56;6.45;;;4.35;;
29878;SDS011;16752;53.364;-1.488;2022-11-23T09:18:23;7.32;;;4.05;;
29878;SDS011;16752;53.364;-1.488;2022-11-23T09:20:49;8.40;;;3.85;;
29878;SDS011;16752;53.364;-1.488;2022-11-23T09:23:15;5.57;;;4.10;;
29878;SDS011;16752;53.364;-1.488;2022-11-23T09:25:40;8.23;;;4.55;;
29878;SDS011;16752;53.364;-1.488;2022-11-23T09:28:07;7.35;;;5.22;;
29878;SDS011;16752;53.364;-1.488;2022-11-23T09:30:33;8.02;;;5.18;;
29878;SDS011;16752;53.364;-1.488;2022-11-23T09:32:59;6.82;;;5.20;;
29878;SDS011;16752;53.364;-1.488;2022-11-23T09:35:25;11.85;;;5.22;;
29878;SDS011;16752;53.364;-1.488;2022-11-23T09:37:57;8.48;;;4.65;;
29878;SDS011;16752;53.364;-1.488;2022-11-23T09:40:24;5.00;;;3.88;;
29878;SDS011;16752;53.364;-1.488;2022-11-23T09:43:55;5.53;;;3.47;;
29878;SDS011;16752;53.364;-1.488;2022-11-23T09:46:08;4.35;;;3.95;;
29878;SDS011;16752;53.364;-1.488;2022-11-23T09:49:15;5.82;;;4.15;;
29878;SDS011;16752;53.364;-1.488;2022-11-23T09:51:43;6.25;;;3.45;;
29878;SDS011;16752;53.364;-1.488;2022-11-23T09:56:56;6.85;;;5.05;;
29878;SDS011;16752;53.364;-1.488;2022-11-23T10:14:11;15.40;;;7.47;;
29878;SDS011;16752;53.364;-1.488;2022-11-23T10:16:52;8.57;;;6.40;;
29878;SDS011;16752;53.364;-1.488;2022-11-23T10:19:34;6.85;;;5.53;;
29878;SDS011;16752;53.364;-1.488;2022-11-23T10:24:45;8.15;;;5.40;;
29878;SDS011;16752;53.364;-1.488;2022-11-23T10:27:21;6.53;;;5.55;;
29878;SDS011;16752;53.364;-1.488;2022-11-23T10:29:49;5.43;;;4.82;;
29878;SDS011;16752;53.364;-1.488;2022-11-23T10:34:51;9.43;;;5.10;;
29878;SDS011;16752;53.364;-1.488;2022-11-23T10:37:18;6.50;;;5.50;;
29878;SDS011;16752;53.364;-1.488;2022-11-23T10:39:44;4.93;;;3.58;;
29878;SDS011;16752;53.364;-1.488;2022-11-23T10:42:37;8.32;;;3.88;;
29878;SDS011;16752;53.364;-1.488;2022-11-23T10:45:25;8.55;;;3.50;;
29878;SDS011;16752;53.364;-1.488;2022-11-23T10:55:06;9.15;;;4.82;;
29878;SDS011;16752;53.364;-1.488;2022-11-23T10:57:48;5.03;;;2.60;;
29878;SDS011;16752;53.364;-1.488;2022-11-23T11:00:17;6.15;;;1.83;;
29878;SDS011;16752;53.364;-1.488;2022-11-23T11:02:48;2.38;;;1.08;;
29878;SDS011;16752;53.364;-1.488;2022-11-23T11:05:32;2.10;;;1.50;;
29878;SDS011;16752;53.364;-1.488;2022-11-23T11:08:15;5.95;;;1.83;;
29878;SDS011;16752;53.364;-1.488;2022-11-23T11:10:47;7.88;;;1.95;;
29878;SDS011;16752;53.364;-1.488;2022-11-23T11:13:38;9.13;;;1.98;;
29878;SDS011;16752;53.364;-1.488;2022-11-23T11:16:25;8.15;;;1.63;;
29878;SDS011;16752;53.364;-1.488;2022-11-23T11:18:55;8.15;;;1.88;;
29878;SDS011;16752;53.364;-1.488;2022-11-23T11:21:34;5.80;;;1.90;;
29878;SDS011;16752;53.364;-1.488;2022-11-23T11:24:11;9.20;;;1.67;;
29878;SDS011;16752;53.364;-1.488;2022-11-23T11:35:39;9.30;;;2.03;;
29878;SDS011;16752;53.364;-1.488;2022-11-23T11:38:11;6.40;;;1.33;;
29878;SDS011;16752;53.364;-1.488;2022-11-23T11:40:59;10.20;;;1.87;;
29878;SDS011;16752;53.364;-1.488;2022-11-23T11:43:31;13.43;;;2.50;;
29878;SDS011;16752;53.364;-1.488;2022-11-23T11:46:11;7.18;;;1.73;;
29878;SDS011;16752;53.364;-1.488;2022-11-23T11:49:01;7.57;;;1.88;;
29878;SDS011;16752;53.364;-1.488;2022-11-23T11:54:25;9.30;;;1.83;;
29878;SDS011;16752;53.364;-1.488;2022-11-23T12:00:28;10.50;;;2.28;;
29878;SDS011;16752;53.364;-1.488;2022-11-23T12:05:52;6.97;;;2.22;;
29878;SDS011;16752;53.364;-1.488;2022-11-23T12:08:39;9.23;;;2.03;;
29878;SDS011;16752;53.364;-1.488;2022-11-23T12:11:24;9.85;;;2.40;;
29878;SDS011;16752;53.364;-1.488;2022-11-23T12:13:56;9.77;;;2.70;;
29878;SDS011;16752;53.364;-1.488;2022-11-23T12:22:10;10.05;;;3.35;;
29878;SDS011;16752;53.364;-1.488;2022-11-23T12:33:30;6.90;;;2.30;;
29878;SDS011;16752;53.364;-1.488;2022-11-23T12:39:16;10.90;;;2.97;;
29878;SDS011;16752;53.364;-1.488;2022-11-23T12:41:53;15.48;;;2.95;;
29878;SDS011;16752;53.364;-1.488;2022-11-23T12:49:45;13.15;;;3.10;;
29878;SDS011;16752;53.364;-1.488;2022-11-23T12:52:31;13.57;;;2.60;;
29878;SDS011;16752;53.364;-1.488;2022-11-23T12:57:37;14.25;;;2.80;;
29878;SDS011;16752;53.364;-1.488;2022-11-23T13:00:16;8.57;;;3.03;;
29878;SDS011;16752;53.364;-1.488;2022-11-23T13:05:46;12.48;;;2.13;;
29878;SDS011;16752;53.364;-1.488;2022-11-23T13:11:45;8.38;;;2.30;;
29878;SDS011;16752;53.364;-1.488;2022-11-23T13:23:03;13.00;;;2.58;;
29878;SDS011;16752;53.364;-1.488;2022-11-23T13:25:31;13.45;;;2.78;;
29878;SDS011;16752;53.364;-1.488;2022-11-23T13:28:25;11.38;;;2.40;;
29878;SDS011;16752;53.364;-1.488;2022-11-23T13:33:40;12.40;;;2.58;;
29878;SDS011;16752;53.364;-1.488;2022-11-23T13:36:10;10.73;;;2.78;;
29878;SDS011;16752;53.364;-1.488;2022-11-23T13:39:06;13.27;;;3.28;;
29878;SDS011;16752;53.364;-1.488;2022-11-23T13:42:28;8.27;;;2.28;;
29878;SDS011;16752;53.364;-1.488;2022-11-23T13:53:20;11.23;;;2.47;;
29878;SDS011;16752;53.364;-1.488;2022-11-23T13:55:53;8.00;;;2.53;;
29878;SDS011;16752;53.364;-1.488;2022-11-23T14:00:50;5.50;;;2.25;;
29878;SDS011;16752;53.364;-1.488;2022-11-23T14:07:02;6.87;;;1.80;;
29878;SDS011;16752;53.364;-1.488;2022-11-23T14:09:45;12.73;;;3.17;;
29878;SDS011;16752;53.364;-1.488;2022-11-23T14:15:14;8.30;;;2.55;;
29878;SDS011;16752;53.364;-1.488;2022-11-23T14:45:45;5.07;;;2.13;;
29878;SDS011;16752;53.364;-1.488;2022-11-23T14:48:20;9.32;;;1.90;;
29878;SDS011;16752;53.364;-1.488;2022-11-23T14:50:56;8.80;;;1.50;;
29878;SDS011;16752;53.364;-1.488;2022-11-23T14:53:26;6.35;;;2.42;;
29878;SDS011;16752;53.364;-1.488;2022-11-23T14:55:55;6.90;;;1.50;;
29878;SDS011;16752;53.364;-1.488;2022-11-23T14:58:22;6.72;;;1.65;;
29878;SDS011;16752;53.364;-1.488;2022-11-23T15:00:57;6.45;;;1.80;;
29878;SDS011;16752;53.364;-1.488;2022-11-23T15:03:25;8.52;;;1.58;;
29878;SDS011;16752;53.364;-1.488;2022-11-23T15:06:13;4.25;;;1.77;;
29878;SDS011;16752;53.364;-1.488;2022-11-23T15:08:45;5.80;;;2.65;;
29878;SDS011;16752;53.364;-1.488;2022-11-23T15:18:09;11.32;;;2.33;;
29878;SDS011;16752;53.364;-1.488;2022-11-23T15:21:18;11.57;;;1.75;;
29878;SDS011;16752;53.364;-1.488;2022-11-23T15:24:22;4.90;;;1.98;;
29878;SDS011;16752;53.364;-1.488;2022-11-23T15:27:14;1.75;;;1.15;;
29878;SDS011;16752;53.364;-1.488;2022-11-23T15:29:54;3.22;;;1.27;;
29878;SDS011;16752;53.364;-1.488;2022-11-23T15:32:38;3.78;;;1.05;;
29878;SDS011;16752;53.364;-1.488;2022-11-23T15:35:29;5.82;;;1.55;;
29878;SDS011;16752;53.364;-1.488;2022-11-23T15:38:17;4.82;;;1.50;;
29878;SDS011;16752;53.364;-1.488;2022-11-23T15:40:52;6.22;;;1.50;;
29878;SDS011;16752;53.364;-1.488;2022-11-23T15:43:18;7.47;;;1.40;;
29878;SDS011;16752;53.364;-1.488;2022-11-23T15:48:28;7.80;;;1.23;;
29878;SDS011;16752;53.364;-1.488;2022-11-23T15:51:03;7.13;;;1.33;;
29878;SDS011;16752;53.364;-1.488;2022-11-23T15:53:47;3.15;;;1.52;;
29878;SDS011;16752;53.364;-1.488;2022-11-23T15:58:55;8.15;;;1.73;;
29878;SDS011;16752;53.364;-1.488;2022-11-23T16:01:26;4.88;;;1.98;;
29878;SDS011;16752;53.364;-1.488;2022-11-23T16:03:55;7.75;;;1.65;;
29878;SDS011;16752;53.364;-1.488;2022-11-23T16:06:36;4.72;;;1.40;;
29878;SDS011;16752;53.364;-1.488;2022-11-23T16:12:00;7.03;;;1.65;;
29878;SDS011;16752;53.364;-1.488;2022-11-23T16:14:27;5.05;;;2.17;;
29878;SDS011;16752;53.364;-1.488;2022-11-23T16:17:04;4.90;;;1.52;;
29878;SDS011;16752;53.364;-1.488;2022-11-23T16:19:52;7.63;;;2.17;;
29878;SDS011;16752;53.364;-1.488;2022-11-23T16:22:29;4.95;;;2.05;;
29878;SDS011;16752;53.364;-1.488;2022-11-23T16:25:07;9.02;;;2.30;;
29878;SDS011;16752;53.364;-1.488;2022-11-23T16:28:00;8.23;;;1.90;;
29878;SDS011;16752;53.364;-1.488;2022-11-23T16:30:35;8.23;;;2.85;;
29878;SDS011;16752;53.364;-1.488;2022-11-23T16:33:05;8.13;;;2.20;;
29878;SDS011;16752;53.364;-1.488;2022-11-23T16:35:44;7.35;;;2.70;;
29878;SDS011;16752;53.364;-1.488;2022-11-23T16:38:38;11.43;;;2.17;;
29878;SDS011;16752;53.364;-1.488;2022-11-23T16:41:04;5.55;;;1.83;;
29878;SDS011;16752;53.364;-1.488;2022-11-23T16:43:31;8.40;;;3.22;;
29878;SDS011;16752;53.364;-1.488;2022-11-23T16:45:59;8.60;;;2.33;;
29878;SDS011;16752;53.364;-1.488;2022-11-23T16:50:52;9.85;;;3.22;;
29878;SDS011;16752;53.364;-1.488;2022-11-23T16:53:25;6.13;;;2.88;;
29878;SDS011;16752;53.364;-1.488;2022-11-23T16:55:54;4.97;;;2.42;;
29878;SDS011;16752;53.364;-1.488;2022-11-23T16:58:22;6.55;;;2.70;;
29878;SDS011;16752;53.364;-1.488;2022-11-23T17:00:51;5.68;;;2.70;;
29878;SDS011;16752;53.364;-1.488;2022-11-23T17:03:18;11.95;;;2.53;;
29878;SDS011;16752;53.364;-1.488;2022-11-23T17:05:45;11.32;;;2.55;;
29878;SDS011;16752;53.364;-1.488;2022-11-23T17:08:11;10.57;;;2.97;;
29878;SDS011;16752;53.364;-1.488;2022-11-23T17:10:37;12.15;;;2.92;;
29878;SDS011;16752;53.364;-1.488;2022-11-23T17:13:09;9.37;;;3.20;;
29878;SDS011;16752;53.364;-1.488;2022-11-23T17:15:57;7.28;;;2.72;;
29878;SDS011;16752;53.364;-1.488;2022-11-23T17:18:23;10.13;;;2.50;;
29878;SDS011;16752;53.364;-1.488;2022-11-23T17:20:49;12.23;;;2.88;;
29878;SDS011;16752;53.364;-1.488;2022-11-23T17:23:14;9.82;;;2.50;;
29878;SDS011;16752;53.364;-1.488;2022-11-23T17:25:44;17.00;;;3.08;;
29878;SDS011;16752;53.364;-1.488;2022-11-23T17:28:14;13.98;;;2.83;;
29878;SDS011;16752;53.364;-1.488;2022-11-23T17:30:42;13.20;;;3.40;;
29878;SDS011;16752;53.364;-1.488;2022-11-23T17:33:09;9.32;;;2.75;;
29878;SDS011;16752;53.364;-1.488;2022-11-23T17:35:36;17.75;;;4.00;;
29878;SDS011;16752;53.364;-1.488;2022-11-23T17:38:05;24.58;;;4.00;;
29878;SDS011;16752;53.364;-1.488;2022-11-23T17:40:36;12.88;;;3.80;;
29878;SDS011;16752;53.364;-1.488;2022-11-23T17:43:02;20.05;;;3.97;;
29878;SDS011;16752;53.364;-1.488;2022-11-23T17:45:27;19.42;;;3.65;;
29878;SDS011;16752;53.364;-1.488;2022-11-23T17:47:54;15.13;;;3.63;;
29878;SDS011;16752;53.364;-1.488;2022-11-23T17:50:20;25.63;;;4.10;;
29878;SDS011;16752;53.364;-1.488;2022-11-23T17:52:48;17.70;;;3.28;;
29878;SDS011;16752;53.364;-1.488;2022-11-23T17:55:14;14.73;;;3.17;;
29878;SDS011;16752;53.364;-1.488;2022-11-23T17:57:43;12.90;;;3.40;;
29878;SDS011;16752;53.364;-1.488;2022-11-23T18:00:19;23.63;;;4.27;;
29878;SDS011;16752;53.364;-1.488;2022-11-23T18:02:52;11.52;;;3.97;;
29878;SDS011;16752;53.364;-1.488;2022-11-23T18:07:49;15.02;;;3.10;;
29878;SDS011;16752;53.364;-1.488;2022-11-23T18:10:18;13.70;;;3.78;;
29878;SDS011;16752;53.364;-1.488;2022-11-23T18:12:46;16.80;;;3.90;;
29878;SDS011;16752;53.364;-1.488;2022-11-23T18:15:12;16.83;;;3.75;;
29878;SDS011;16752;53.364;-1.488;2022-11-23T18:17:39;12.48;;;3.75;;
29878;SDS011;16752;53.364;-1.488;2022-11-23T18:20:05;10.23;;;3.30;;
29878;SDS011;16752;53.364;-1.488;2022-11-23T18:22:32;10.63;;;3.30;;
29878;SDS011;16752;53.364;-1.488;2022-11-23T18:25:01;14.57;;;4.30;;
29878;SDS011;16752;53.364;-1.488;2022-11-23T18:27:29;14.35;;;3.85;;
29878;SDS011;16752;53.364;-1.488;2022-11-23T18:29:55;19.17;;;3.67;;
29878;SDS011;16752;53.364;-1.488;2022-11-23T18:32:20;13.98;;;3.40;;
29878;SDS011;16752;53.364;-1.488;2022-11-23T18:34:46;17.17;;;4.32;;
29878;SDS011;16752;53.364;-1.488;2022-11-23T18:37:12;17.10;;;4.05;;
29878;SDS011;16752;53.364;-1.488;2022-11-23T18:39:37;14.65;;;3.10;;
29878;SDS011;16752;53.364;-1.488;2022-11-23T18:42:06;14.77;;;4.03;;
29878;SDS011;16752;53.364;-1.488;2022-11-23T18:44:32;14.40;;;4.00;;
29878;SDS011;16752;53.364;-1.488;2022-11-23T18:46:59;17.95;;;4.88;;
29878;SDS011;16752;53.364;-1.488;2022-11-23T18:49:45;13.40;;;4.13;;
29878;SDS011;16752;53.364;-1.488;2022-11-23T18:52:29;15.65;;;4.43;;
29878;SDS011;16752;53.364;-1.488;2022-11-23T18:54:57;29.73;;;6.25;;
29878;SDS011;16752;53.364;-1.488;2022-11-23T18:57:23;22.10;;;5.32;;
29878;SDS011;16752;53.364;-1.488;2022-11-23T18:59:52;24.60;;;5.28;;
29878;SDS011;16752;53.364;-1.488;2022-11-23T19:02:17;20.45;;;4.65;;
29878;SDS011;16752;53.364;-1.488;2022-11-23T19:04:43;19.67;;;4.47;;